ADDS METAR Data INFO
IDs: Format: Raw Decoded Include TAF

Data at: 1116 UTC 24 Apr 2017

METAR for:KIAH (Houston/Bush Intl, TX, US)
Text:KIAH 241053Z 00000KT 10SM CLR 11/10 A2996 RMK AO2 SLP145 T01110100
Temperature: 11.1°C ( 52°F)
Dewpoint: 10.0°C ( 50°F) [RH = 93%]
Pressure (altimeter):29.96 inches Hg (1014.6 mb) [Sea level pressure: 1014.5 mb]
Winds:calm
Visibility:10 or more sm (16+ km)
Ceiling:at least 12,000 feet AGL
Clouds:sky clear below 12,000 feet AGL

METAR for:KHOU (Houston/Hobby Arpt, TX, US)
Text:KHOU 241053Z 00000KT 10SM CLR 13/10 A2996 RMK AO2 SLP149 T01280100
Temperature: 12.8°C ( 55°F)
Dewpoint: 10.0°C ( 50°F) [RH = 83%]
Pressure (altimeter):29.96 inches Hg (1014.6 mb) [Sea level pressure: 1014.9 mb]
Winds:calm
Visibility:10 or more sm (16+ km)
Ceiling:at least 12,000 feet AGL
Clouds:sky clear below 12,000 feet AGL

METAR for:KGLS (Galveston/Scholes In, TX, US)
Text:KGLS 241052Z 32007KT 10SM CLR 17/12 A2996 RMK AO2 SLP145 T01720122
Temperature: 17.2°C ( 63°F)
Dewpoint: 12.2°C ( 54°F) [RH = 72%]
Pressure (altimeter):29.96 inches Hg (1014.6 mb) [Sea level pressure: 1014.5 mb]
Winds:from the NW (320 degrees) at 8 MPH (7 knots; 3.6 m/s)
Visibility:10 or more sm (16+ km)
Ceiling:at least 12,000 feet AGL
Clouds:sky clear below 12,000 feet AGL

METAR for:KLVJ (Houston/Pearland Rgn, TX, US)
Text:KLVJ 241053Z AUTO 00000KT 10SM CLR 13/09 A2997 RMK AO2 SLP149 T01280094
Temperature: 12.8°C ( 55°F)
Dewpoint: 9.4°C ( 49°F) [RH = 80%]
Pressure (altimeter):29.97 inches Hg (1015.0 mb) [Sea level pressure: 1014.9 mb]
Winds:calm
Visibility:10 or more sm (16+ km)
Ceiling:at least 12,000 feet AGL
Clouds:sky clear below 12,000 feet AGL
QC Flag:automated observation with no human augmentation

METAR for:KSGR (Houston/Sugar Land R, TX, US)
Text:KSGR 241053Z 36003KT 10SM CLR 11/10 A2996 RMK AO2 SLP147 T01060100
Temperature: 10.6°C ( 51°F)
Dewpoint: 10.0°C ( 50°F) [RH = 96%]
Pressure (altimeter):29.96 inches Hg (1014.6 mb) [Sea level pressure: 1014.7 mb]
Winds:from the N (360 degrees) at 3 MPH (3 knots; 1.5 m/s)
Visibility:10 or more sm (16+ km)
Ceiling:at least 12,000 feet AGL
Clouds:sky clear below 12,000 feet AGL

METAR for:KDWH (Houston/Hooks Mem, TX, US)
Text:KDWH 241053Z AUTO 27003KT 10SM CLR 10/09 A2997 RMK AO2 SLP147 T01000089
Temperature: 10.0°C ( 50°F)
Dewpoint: 8.9°C ( 48°F) [RH = 93%]
Pressure (altimeter):29.97 inches Hg (1015.0 mb) [Sea level pressure: 1014.7 mb]
Winds:from the W (270 degrees) at 3 MPH (3 knots; 1.5 m/s)
Visibility:10 or more sm (16+ km)
Ceiling:at least 12,000 feet AGL
Clouds:sky clear below 12,000 feet AGL
QC Flag:automated observation with no human augmentation

METAR for:KCLL (College Station/East, TX, US)
Text:KCLL 241053Z AUTO 00000KT 10SM CLR 10/08 A2997 RMK AO2 SLP144 T01000078
Temperature: 10.0°C ( 50°F)
Dewpoint: 7.8°C ( 46°F) [RH = 86%]
Pressure (altimeter):29.97 inches Hg (1015.0 mb) [Sea level pressure: 1014.4 mb]
Winds:calm
Visibility:10 or more sm (16+ km)
Ceiling:at least 12,000 feet AGL
Clouds:sky clear below 12,000 feet AGL
QC Flag:automated observation with no human augmentation

METAR for:KUTS (Huntsville Muni, TX, US)
Text:KUTS 241053Z AUTO 00000KT 10SM CLR 10/07 A2996 RMK AO2 SLP143 T01000072 $
Temperature: 10.0°C ( 50°F)
Dewpoint: 7.2°C ( 45°F) [RH = 83%]
Pressure (altimeter):29.96 inches Hg (1014.6 mb) [Sea level pressure: 1014.3 mb]
Winds:calm
Visibility:10 or more sm (16+ km)
Ceiling:at least 12,000 feet AGL
Clouds:sky clear below 12,000 feet AGL
QC Flag:automated observation with no human augmentation; SOME DATA ABOVE MAY BE INACCURATE!!!"$" is an indication the sensor requires maintenance.

METAR for:KCXO (Conroe/Executive Arp, TX, US)
Text:KCXO 241053Z 00000KT 10SM CLR 07/06 A2996 RMK AO2 SLP144 T00720061
Temperature: 7.2°C ( 45°F)
Dewpoint: 6.1°C ( 43°F) [RH = 93%]
Pressure (altimeter):29.96 inches Hg (1014.6 mb) [Sea level pressure: 1014.4 mb]
Winds:calm
Visibility:10 or more sm (16+ km)
Ceiling:at least 12,000 feet AGL
Clouds:sky clear below 12,000 feet AGL

METAR for:KLBX (Angleton/Texas Gulf, TX, US)
Text:KLBX 241053Z AUTO 00000KT 10SM CLR 11/09 A2996 RMK AO2 SLP145 T01060094
Temperature: 10.6°C ( 51°F)
Dewpoint: 9.4°C ( 49°F) [RH = 92%]
Pressure (altimeter):29.96 inches Hg (1014.6 mb) [Sea level pressure: 1014.5 mb]
Winds:calm
Visibility:10 or more sm (16+ km)
Ceiling:at least 12,000 feet AGL
Clouds:sky clear below 12,000 feet AGL
QC Flag:automated observation with no human augmentation

METAR for:KPSX (Palacios Muni, TX, US)
Text:KPSX 241053Z AUTO 36004KT 10SM CLR 12/09 A2996 RMK AO2 SLP145 T01170089 TSNO
Temperature: 11.7°C ( 53°F)
Dewpoint: 8.9°C ( 48°F) [RH = 83%]
Pressure (altimeter):29.96 inches Hg (1014.6 mb) [Sea level pressure: 1014.5 mb]
Winds:from the N (360 degrees) at 5 MPH (4 knots; 2.1 m/s)
Visibility:10 or more sm (16+ km)
Ceiling:at least 12,000 feet AGL
Clouds:sky clear below 12,000 feet AGL
QC Flag:automated observation with no human augmentation


Page loaded:  11:16 UTC  |   04:16 AM Pacific  |   05:16 AM Mountain  |   06:16 AM Central  |   07:16 AM Eastern

 

ADVISORIES

FORECASTS

FORECASTS

OBSERVATIONS

USER TOOLS

ABOUT US